createdAt,value
2019-03-26T00:02:14.951Z,9.03
2019-03-26T00:04:43.346Z,8.20
2019-03-26T00:07:11.729Z,8.68
2019-03-26T00:09:40.119Z,8.25
2019-03-26T00:12:08.479Z,8.95
2019-03-26T00:14:36.896Z,7.83
2019-03-26T00:17:05.269Z,8.38
2019-03-26T00:19:33.659Z,9.05
2019-03-26T00:22:02.035Z,8.58
2019-03-26T00:24:30.430Z,7.67
2019-03-26T00:26:58.804Z,9.10
2019-03-26T00:29:27.212Z,8.75
2019-03-26T00:31:55.585Z,7.45
2019-03-26T00:34:23.880Z,8.20
2019-03-26T00:36:52.271Z,8.63
2019-03-26T00:39:20.644Z,8.55
2019-03-26T00:41:49.039Z,8.28
2019-03-26T00:44:17.406Z,8.45
2019-03-26T00:46:45.807Z,8.53
2019-03-26T00:49:14.175Z,9.85
2019-03-26T00:51:42.568Z,8.55
2019-03-26T00:54:10.931Z,7.92
2019-03-26T00:56:39.344Z,8.35
2019-03-26T00:59:07.702Z,9.45
2019-03-26T01:01:36.096Z,8.80
2019-03-26T01:04:04.466Z,8.80
2019-03-26T01:06:32.865Z,9.68
2019-03-26T01:09:01.222Z,9.90
2019-03-26T01:11:29.612Z,8.85
2019-03-26T01:13:57.985Z,9.13
2019-03-26T01:16:26.376Z,9.90
2019-03-26T01:18:54.752Z,9.88
2019-03-26T01:21:23.129Z,8.55
2019-03-26T01:23:51.508Z,9.75
2019-03-26T01:26:19.912Z,8.63
2019-03-26T01:28:48.289Z,8.90
2019-03-26T01:31:16.684Z,9.10
2019-03-26T01:33:45.056Z,9.88
2019-03-26T01:36:13.456Z,9.08
2019-03-26T01:38:41.854Z,10.28
2019-03-26T01:41:10.253Z,9.35
2019-03-26T01:43:38.621Z,10.43
2019-03-26T01:46:07.015Z,10.70
2019-03-26T01:48:35.386Z,10.65
2019-03-26T01:51:03.788Z,11.22
2019-03-26T01:53:32.172Z,10.43
2019-03-26T01:56:00.570Z,10.45
2019-03-26T01:58:28.872Z,11.12
2019-03-26T02:00:57.256Z,11.53
2019-03-26T02:03:25.651Z,11.05
2019-03-26T02:05:54.019Z,11.12
2019-03-26T02:08:22.420Z,11.68
2019-03-26T02:10:50.785Z,11.83
2019-03-26T02:13:19.202Z,10.80
2019-03-26T02:15:47.571Z,10.15
2019-03-26T02:18:15.962Z,10.78
2019-03-26T02:20:44.349Z,12.25
2019-03-26T02:23:12.748Z,11.48
2019-03-26T02:25:41.118Z,12.43
2019-03-26T02:28:09.521Z,12.43
2019-03-26T02:30:37.887Z,10.30
2019-03-26T02:33:06.286Z,12.80
2019-03-26T02:35:34.667Z,12.95
2019-03-26T02:38:03.055Z,11.80
2019-03-26T02:40:31.436Z,11.97
2019-03-26T02:42:59.835Z,12.28
2019-03-26T02:45:28.199Z,12.07
2019-03-26T02:47:56.604Z,11.78
2019-03-26T02:50:24.966Z,13.30
2019-03-26T02:52:53.362Z,11.68
2019-03-26T02:55:21.748Z,11.68
2019-03-26T02:57:50.157Z,13.78
2019-03-26T03:00:18.560Z,13.15
2019-03-26T03:02:46.957Z,12.30
2019-03-26T03:05:15.336Z,12.03
2019-03-26T03:07:43.737Z,13.45
2019-03-26T03:10:12.100Z,12.70
2019-03-26T03:12:40.502Z,12.75
2019-03-26T03:15:08.894Z,13.35
2019-03-26T03:17:37.268Z,11.95
2019-03-26T03:20:06.226Z,12.85
2019-03-26T03:22:34.713Z,12.33
2019-03-26T03:25:03.101Z,11.80
2019-03-26T03:27:31.497Z,12.28
2019-03-26T03:29:59.890Z,13.58
2019-03-26T03:32:28.321Z,13.05
2019-03-26T03:34:56.702Z,14.03
2019-03-26T03:37:25.096Z,13.48
2019-03-26T03:39:53.470Z,11.53
2019-03-26T03:42:21.888Z,12.45
2019-03-26T03:44:50.280Z,11.05
2019-03-26T03:47:52.093Z,11.53
2019-03-26T03:50:20.577Z,11.28
2019-03-26T03:52:49.024Z,12.78
2019-03-26T03:55:17.416Z,12.58
2019-03-26T03:57:45.899Z,11.70
2019-03-26T04:00:23.520Z,12.18
2019-03-26T04:02:52.014Z,12.90
2019-03-26T04:05:20.387Z,13.35
2019-03-26T04:07:48.790Z,13.20
2019-03-26T04:10:17.196Z,12.60
2019-03-26T04:12:45.680Z,13.03
2019-03-26T04:15:14.066Z,13.65
2019-03-26T04:17:42.464Z,12.63
2019-03-26T04:20:10.889Z,13.68
2019-03-26T04:22:39.291Z,12.50
2019-03-26T04:25:07.733Z,12.43
2019-03-26T04:27:37.812Z,13.72
2019-03-26T04:30:07.940Z,13.10
2019-03-26T04:32:36.345Z,13.28
2019-03-26T04:35:06.476Z,14.03
2019-03-26T04:37:34.885Z,12.80
2019-03-26T04:40:03.310Z,14.38
2019-03-26T04:42:31.722Z,13.75
2019-03-26T04:45:00.463Z,13.22
2019-03-26T04:47:28.856Z,13.43
2019-03-26T04:49:57.286Z,12.93
2019-03-26T04:52:25.689Z,14.47
2019-03-26T04:54:54.132Z,13.58
2019-03-26T04:57:22.543Z,12.98
2019-03-26T04:59:51.029Z,13.60
2019-03-26T05:02:19.404Z,12.85
2019-03-26T05:04:47.822Z,14.13
2019-03-26T05:07:16.239Z,13.80
2019-03-26T05:09:44.650Z,14.38
2019-03-26T05:12:13.035Z,13.05
2019-03-26T05:14:41.483Z,12.58
2019-03-26T05:17:09.879Z,12.98
2019-03-26T05:19:38.297Z,14.15
2019-03-26T05:22:06.677Z,14.55
2019-03-26T05:24:35.090Z,16.00
2019-03-26T05:27:03.499Z,14.73
2019-03-26T05:29:31.928Z,13.65
2019-03-26T05:32:00.327Z,15.48
2019-03-26T05:34:28.742Z,15.65
2019-03-26T05:36:57.214Z,13.62
2019-03-26T05:39:25.652Z,14.33
2019-03-26T05:41:54.133Z,13.62
2019-03-26T05:44:22.579Z,12.63
2019-03-26T05:46:50.991Z,14.35
2019-03-26T05:49:19.416Z,13.35
2019-03-26T05:51:47.814Z,15.72
2019-03-26T05:54:17.215Z,15.68
2019-03-26T05:56:45.674Z,14.38
2019-03-26T05:59:14.209Z,14.00
2019-03-26T06:01:42.637Z,14.75
2019-03-26T06:04:11.067Z,14.93
2019-03-26T06:06:39.499Z,14.07
2019-03-26T06:09:07.896Z,15.28
2019-03-26T06:11:36.311Z,14.55
2019-03-26T06:14:04.721Z,15.50
2019-03-26T06:16:38.230Z,15.75
2019-03-26T06:19:03.168Z,17.48
2019-03-26T06:21:31.677Z,16.62
2019-03-26T06:24:00.077Z,17.57
2019-03-26T06:26:30.336Z,16.70
2019-03-26T06:29:01.174Z,16.45
2019-03-26T06:31:29.322Z,16.85
2019-03-26T06:33:57.713Z,15.70
2019-03-26T06:36:26.125Z,15.55
2019-03-26T06:38:54.521Z,16.10
2019-03-26T06:41:22.942Z,16.77
2019-03-26T06:43:51.351Z,15.93
2019-03-26T06:46:19.778Z,15.03
2019-03-26T06:48:48.655Z,14.47
2019-03-26T06:51:17.094Z,15.20
2019-03-26T06:53:45.500Z,15.48
2019-03-26T06:56:13.915Z,15.28
2019-03-26T06:58:42.385Z,15.98
2019-03-26T07:01:10.809Z,16.12
2019-03-26T07:03:39.202Z,15.32
2019-03-26T07:06:07.639Z,14.28
2019-03-26T07:08:36.042Z,16.45
2019-03-26T07:11:04.455Z,16.27
2019-03-26T07:13:32.850Z,15.28
2019-03-26T07:16:01.262Z,14.45
2019-03-26T07:18:29.646Z,15.83
2019-03-26T07:20:58.069Z,16.37
2019-03-26T07:23:26.456Z,15.72
2019-03-26T07:25:54.875Z,15.85
2019-03-26T07:28:23.266Z,15.03
2019-03-26T07:30:51.690Z,16.45
2019-03-26T07:33:20.086Z,16.42
2019-03-26T07:35:48.504Z,17.17
2019-03-26T07:38:16.901Z,15.25
2019-03-26T07:40:45.341Z,15.98
2019-03-26T07:43:13.738Z,16.93
2019-03-26T07:45:42.171Z,15.63
2019-03-26T07:48:10.574Z,15.55
2019-03-26T07:50:39.002Z,14.78
2019-03-26T07:53:07.400Z,15.18
2019-03-26T07:55:35.821Z,16.00
2019-03-26T07:58:04.465Z,15.80
2019-03-26T08:00:34.226Z,15.23
2019-03-26T08:03:02.599Z,14.87
2019-03-26T08:05:31.016Z,13.48
2019-03-26T08:07:59.595Z,14.83
2019-03-26T08:10:28.123Z,16.07
2019-03-26T08:12:56.706Z,15.23
2019-03-26T08:15:25.119Z,14.98
2019-03-26T08:17:53.546Z,13.83
2019-03-26T08:20:21.962Z,14.93
2019-03-26T08:22:50.417Z,13.60
2019-03-26T08:25:18.799Z,12.00
2019-03-26T08:27:47.216Z,11.22
2019-03-26T08:30:15.606Z,11.73
2019-03-26T08:32:44.027Z,12.55
2019-03-26T08:35:12.421Z,11.90
2019-03-26T08:37:40.840Z,11.68
2019-03-26T08:40:09.407Z,11.57
2019-03-26T08:42:37.802Z,13.00
2019-03-26T08:45:07.741Z,12.47
2019-03-26T08:47:36.185Z,12.70
2019-03-26T08:50:07.578Z,11.75
2019-03-26T08:52:35.998Z,10.95
2019-03-26T08:55:07.404Z,11.57
2019-03-26T08:57:35.828Z,11.28
2019-03-26T09:00:09.455Z,11.43
2019-03-26T09:02:37.878Z,11.35
2019-03-26T09:05:07.420Z,11.85
2019-03-26T09:07:35.842Z,10.48
2019-03-26T09:10:05.960Z,11.28
2019-03-26T09:12:34.385Z,11.80
2019-03-26T09:15:02.798Z,11.08
2019-03-26T09:17:31.242Z,10.98
2019-03-26T09:19:59.644Z,11.53
2019-03-26T09:22:28.083Z,11.35
2019-03-26T09:24:56.498Z,11.05
2019-03-26T09:27:24.919Z,9.45
2019-03-26T09:29:53.327Z,9.70
2019-03-26T09:32:22.277Z,9.48
2019-03-26T09:34:50.647Z,9.28
2019-03-26T09:37:19.090Z,9.98
2019-03-26T09:39:47.639Z,9.68
2019-03-26T09:42:16.087Z,9.45
2019-03-26T09:44:44.470Z,9.40
2019-03-26T09:47:16.509Z,8.70
2019-03-26T09:49:42.900Z,9.05
2019-03-26T09:52:11.297Z,9.98
2019-03-26T09:54:39.676Z,9.00
2019-03-26T09:57:08.074Z,8.05
2019-03-26T09:59:36.453Z,8.40
2019-03-26T10:02:04.828Z,9.23
2019-03-26T10:04:33.227Z,9.80
2019-03-26T10:07:01.607Z,9.55
2019-03-26T10:09:30.007Z,9.33
2019-03-26T10:11:58.366Z,8.73
2019-03-26T10:14:26.815Z,9.18
2019-03-26T10:16:55.149Z,9.45
2019-03-26T10:19:23.531Z,9.93
2019-03-26T10:21:51.959Z,9.38
2019-03-26T10:24:20.357Z,9.33
2019-03-26T10:26:48.735Z,10.75
2019-03-26T10:29:29.504Z,9.48
2019-03-26T10:31:47.157Z,9.40
2019-03-26T10:34:15.548Z,8.90
2019-03-26T10:36:44.797Z,9.63
2019-03-26T10:39:13.190Z,9.53
2019-03-26T10:41:41.585Z,10.20
2019-03-26T10:44:09.977Z,9.15
2019-03-26T10:46:38.404Z,8.28
2019-03-26T10:49:06.764Z,9.70
2019-03-26T10:51:35.132Z,9.73
2019-03-26T10:54:03.523Z,8.88
2019-03-26T10:56:32.745Z,8.88
2019-03-26T10:59:04.058Z,8.63
2019-03-26T11:01:31.223Z,7.85
2019-03-26T11:03:59.629Z,7.75
2019-03-26T11:06:28.001Z,7.22
2019-03-26T11:08:56.398Z,7.45
2019-03-26T11:11:24.770Z,6.95
2019-03-26T11:13:53.154Z,7.12
2019-03-26T11:16:21.537Z,7.20
2019-03-26T11:18:49.943Z,7.70
2019-03-26T11:21:18.325Z,7.55
2019-03-26T11:23:46.729Z,7.58
2019-03-26T11:26:15.111Z,7.95
2019-03-26T11:28:43.503Z,7.80
2019-03-26T11:31:11.882Z,8.20
2019-03-26T11:33:40.314Z,7.47
2019-03-26T11:36:08.662Z,8.03
2019-03-26T11:38:37.031Z,7.72
2019-03-26T11:41:05.419Z,7.78
2019-03-26T11:43:33.793Z,7.87
2019-03-26T11:46:02.213Z,7.00
2019-03-26T11:48:30.575Z,6.42
2019-03-26T11:50:58.962Z,6.70
2019-03-26T11:53:27.331Z,6.78
2019-03-26T11:55:55.736Z,7.00
2019-03-26T11:58:30.565Z,6.83
2019-03-26T12:00:54.160Z,6.72
2019-03-26T12:03:22.535Z,6.85
2019-03-26T12:05:50.927Z,6.62
2019-03-26T12:08:19.302Z,6.45
2019-03-26T12:10:47.694Z,6.00
2019-03-26T12:13:16.072Z,6.67
2019-03-26T12:15:44.481Z,7.20
2019-03-26T12:18:12.887Z,6.60
2019-03-26T12:20:41.259Z,6.40
2019-03-26T12:23:09.631Z,5.42
2019-03-26T12:25:38.033Z,6.42
2019-03-26T12:28:06.465Z,5.35
2019-03-26T12:30:36.146Z,5.55
2019-03-26T12:33:04.746Z,5.70
2019-03-26T12:35:33.139Z,5.17
2019-03-26T12:38:04.782Z,4.70
2019-03-26T12:40:33.172Z,5.62
2019-03-26T12:43:01.554Z,4.97
2019-03-26T12:45:29.946Z,4.72
2019-03-26T12:47:58.343Z,4.40
2019-03-26T12:50:26.740Z,5.22
2019-03-26T12:52:55.121Z,5.17
2019-03-26T12:55:23.507Z,4.60
2019-03-26T12:57:51.886Z,4.60
2019-03-26T13:00:23.542Z,4.67
2019-03-26T13:02:51.932Z,4.50
2019-03-26T13:05:23.116Z,4.40
2019-03-26T13:07:50.366Z,3.65
2019-03-26T13:10:18.790Z,3.55
2019-03-26T13:12:47.088Z,3.70
2019-03-26T13:15:15.481Z,3.52
2019-03-26T13:17:43.843Z,3.60
2019-03-26T13:20:12.242Z,2.87
2019-03-26T13:22:40.628Z,3.20
2019-03-26T13:25:09.007Z,3.15
2019-03-26T13:27:37.399Z,3.60
2019-03-26T13:30:06.412Z,3.98
2019-03-26T13:32:34.796Z,4.75
2019-03-26T13:35:05.172Z,4.70
2019-03-26T13:37:33.554Z,3.92
2019-03-26T13:40:01.932Z,4.67
2019-03-26T13:42:30.329Z,4.87
2019-03-26T13:44:58.705Z,5.05
2019-03-26T13:47:27.110Z,5.70
2019-03-26T13:49:55.484Z,5.85
2019-03-26T13:52:23.866Z,6.60
2019-03-26T13:54:52.249Z,6.10
2019-03-26T13:57:21.579Z,6.20
2019-03-26T13:59:49.952Z,5.87
2019-03-26T14:02:18.365Z,6.78
2019-03-26T14:04:46.752Z,6.87
2019-03-26T14:07:15.131Z,5.53
2019-03-26T14:09:43.510Z,6.28
2019-03-26T14:12:11.912Z,5.60
2019-03-26T14:14:40.295Z,7.35
2019-03-26T14:17:08.686Z,7.12
2019-03-26T14:19:37.080Z,6.85
2019-03-26T14:22:05.483Z,7.40
2019-03-26T14:24:33.877Z,7.75
2019-03-26T14:27:02.276Z,7.72
2019-03-26T14:29:30.653Z,7.45
2019-03-26T14:31:59.060Z,7.85
2019-03-26T14:34:27.444Z,7.78
2019-03-26T14:36:55.855Z,7.45
2019-03-26T14:39:24.223Z,7.00
2019-03-26T14:41:52.624Z,6.80
2019-03-26T14:44:21.000Z,7.15
2019-03-26T14:46:49.405Z,8.15
2019-03-26T14:49:17.792Z,7.65
2019-03-26T14:51:46.305Z,8.03
2019-03-26T14:54:14.647Z,7.70
2019-03-26T14:56:43.048Z,8.63
2019-03-26T14:59:11.423Z,8.83
2019-03-26T15:01:41.438Z,8.35
2019-03-26T15:04:09.734Z,8.85
2019-03-26T15:06:38.119Z,9.40
2019-03-26T15:09:07.958Z,9.05
2019-03-26T15:11:36.348Z,8.75
2019-03-26T15:14:04.734Z,8.28
2019-03-26T15:16:33.102Z,8.10
2019-03-26T15:19:01.516Z,9.13
2019-03-26T15:21:29.888Z,8.20
2019-03-26T15:23:58.296Z,7.17
2019-03-26T15:26:26.663Z,7.45
2019-03-26T15:28:55.054Z,7.12
2019-03-26T15:31:23.381Z,7.15
2019-03-26T15:33:51.857Z,7.30
2019-03-26T15:36:20.244Z,7.65
2019-03-26T15:38:48.640Z,6.95
2019-03-26T15:41:21.804Z,8.25
2019-03-26T15:43:47.064Z,8.13
2019-03-26T15:46:15.474Z,9.93
2019-03-26T15:48:43.871Z,10.10
2019-03-26T15:51:12.259Z,9.60
2019-03-26T15:53:40.660Z,10.82
2019-03-26T15:56:09.045Z,11.90
2019-03-26T15:58:37.513Z,11.68
2019-03-26T16:01:05.903Z,12.82
2019-03-26T16:03:34.341Z,12.63
2019-03-26T16:06:02.720Z,12.37
2019-03-26T16:08:31.130Z,13.13
2019-03-26T16:11:01.488Z,13.68
2019-03-26T16:13:29.930Z,13.62
2019-03-26T16:16:04.534Z,12.78
2019-03-26T16:18:32.953Z,12.93
2019-03-26T16:21:01.469Z,14.30
2019-03-26T16:23:29.988Z,12.37
2019-03-26T16:25:58.429Z,12.40
2019-03-26T16:28:26.818Z,12.03
2019-03-26T16:30:55.195Z,12.50
2019-03-26T16:33:23.614Z,12.43
2019-03-26T16:35:51.988Z,13.05
2019-03-26T16:38:20.394Z,12.25
2019-03-26T16:40:48.776Z,12.68
2019-03-26T16:43:17.224Z,12.55
2019-03-26T16:45:45.593Z,13.62
2019-03-26T16:48:14.009Z,14.18
2019-03-26T16:50:42.419Z,13.48
2019-03-26T16:53:10.819Z,13.48
2019-03-26T16:55:39.242Z,14.18
2019-03-26T16:58:07.602Z,13.10
2019-03-26T17:00:36.002Z,13.00
2019-03-26T17:03:04.392Z,14.35
2019-03-26T17:05:32.787Z,12.25
2019-03-26T17:08:01.167Z,11.83
2019-03-26T17:10:29.567Z,11.85
2019-03-26T17:12:58.686Z,11.55
2019-03-26T17:15:27.146Z,11.90
2019-03-26T17:17:55.506Z,11.08
2019-03-26T17:20:24.289Z,10.55
2019-03-26T17:22:52.718Z,11.12
2019-03-26T17:25:21.107Z,9.58
2019-03-26T17:27:49.560Z,10.35
2019-03-26T17:30:17.963Z,82.80
2019-03-26T17:32:46.350Z,29.45
2019-03-26T17:35:14.734Z,17.70
2019-03-26T17:37:43.106Z,12.40
2019-03-26T17:40:14.836Z,9.18
2019-03-26T17:42:43.184Z,8.55
2019-03-26T17:45:11.574Z,8.98
2019-03-26T17:47:39.952Z,8.10
2019-03-26T17:50:08.380Z,8.93
2019-03-26T17:52:36.736Z,9.15
2019-03-26T17:55:07.058Z,9.73
2019-03-26T17:57:35.446Z,13.03
2019-03-26T18:00:05.323Z,9.88
2019-03-26T18:02:33.685Z,8.60
2019-03-26T18:05:02.088Z,8.30
2019-03-26T18:07:30.473Z,8.85
2019-03-26T18:09:58.952Z,7.22
2019-03-26T18:12:30.986Z,7.42
2019-03-26T18:14:57.382Z,7.97
2019-03-26T18:17:25.752Z,7.67
2019-03-26T18:19:54.217Z,8.63
2019-03-26T18:22:25.388Z,9.00
2019-03-26T18:24:53.759Z,9.15
2019-03-26T18:27:22.487Z,8.88
2019-03-26T18:29:51.114Z,8.90
2019-03-26T18:32:19.544Z,11.33
2019-03-26T18:34:49.339Z,10.32
2019-03-26T18:37:17.856Z,9.75
2019-03-26T18:39:46.239Z,10.20
2019-03-26T18:42:14.672Z,9.78
2019-03-26T18:44:45.043Z,10.15
2019-03-26T18:47:13.451Z,9.55
2019-03-26T18:49:46.244Z,10.68
2019-03-26T18:52:14.635Z,12.10
2019-03-26T18:54:43.022Z,10.88
2019-03-26T18:57:11.425Z,9.33
2019-03-26T18:59:39.806Z,10.60
2019-03-26T19:02:08.188Z,12.00
2019-03-26T19:04:36.875Z,11.83
2019-03-26T19:07:05.223Z,10.08
2019-03-26T19:09:33.601Z,10.98
2019-03-26T19:12:02.041Z,10.63
2019-03-26T19:14:30.423Z,12.30
2019-03-26T19:16:58.832Z,11.78
2019-03-26T19:19:27.206Z,14.05
2019-03-26T19:21:55.630Z,15.15
2019-03-26T19:24:24.081Z,18.62
2019-03-26T19:26:52.493Z,17.35
2019-03-26T19:29:22.573Z,11.63
2019-03-26T19:31:51.041Z,10.25
2019-03-26T19:34:22.704Z,9.55
2019-03-26T19:36:53.074Z,9.98
2019-03-26T19:39:25.466Z,9.23
2019-03-26T19:41:53.834Z,9.83
2019-03-26T19:44:22.225Z,10.55
2019-03-26T19:46:51.591Z,8.98
2019-03-26T19:49:19.991Z,10.25
2019-03-26T19:51:48.397Z,10.38
2019-03-26T19:54:16.762Z,9.43
2019-03-26T19:56:45.164Z,9.08
2019-03-26T19:59:13.602Z,9.98
2019-03-26T20:01:42.034Z,10.20
2019-03-26T20:04:10.414Z,10.30
2019-03-26T20:06:38.830Z,9.03
2019-03-26T20:09:12.942Z,9.93
2019-03-26T20:11:41.323Z,11.08
2019-03-26T20:14:09.752Z,10.40
2019-03-26T20:16:41.991Z,9.90
2019-03-26T20:19:08.171Z,10.15
2019-03-26T20:21:36.559Z,10.75
2019-03-26T20:24:04.951Z,11.48
2019-03-26T20:26:33.349Z,10.60
2019-03-26T20:29:01.743Z,10.70
2019-03-26T20:31:30.119Z,10.28
2019-03-26T20:33:58.515Z,10.75
2019-03-26T20:36:26.902Z,10.82
2019-03-26T20:38:55.332Z,9.93
2019-03-26T20:41:23.700Z,10.30
2019-03-26T20:43:52.105Z,11.95
2019-03-26T20:46:20.480Z,13.25
2019-03-26T20:48:48.901Z,12.30
2019-03-26T20:51:17.272Z,12.37
2019-03-26T20:53:46.654Z,12.53
2019-03-26T20:56:22.452Z,13.55
2019-03-26T20:58:51.009Z,13.58
2019-03-26T21:01:19.379Z,12.50
2019-03-26T21:03:47.793Z,12.05
2019-03-26T21:06:16.196Z,12.20
2019-03-26T21:08:44.640Z,12.13
2019-03-26T21:11:13.032Z,12.23
2019-03-26T21:13:50.782Z,12.03
2019-03-26T21:16:11.602Z,12.55
2019-03-26T21:18:40.000Z,11.95
2019-03-26T21:21:08.385Z,12.80
2019-03-26T21:23:36.781Z,13.88
2019-03-26T21:26:05.152Z,14.38
2019-03-26T21:28:33.551Z,14.05
2019-03-26T21:31:01.936Z,12.90
2019-03-26T21:33:30.351Z,14.15
2019-03-26T21:35:58.731Z,13.78
2019-03-26T21:38:27.131Z,13.95
2019-03-26T21:40:55.509Z,13.35
2019-03-26T21:43:23.915Z,14.53
2019-03-26T21:45:52.277Z,14.15
2019-03-26T21:48:20.667Z,15.32
2019-03-26T21:50:49.038Z,13.20
2019-03-26T21:53:17.451Z,14.28
2019-03-26T21:55:45.826Z,13.95
2019-03-26T21:58:14.236Z,13.30
2019-03-26T22:00:44.371Z,14.18
2019-03-26T22:03:12.654Z,13.50
2019-03-26T22:05:41.023Z,12.70
2019-03-26T22:08:09.385Z,14.63
2019-03-26T22:10:37.754Z,13.70
2019-03-26T22:13:06.160Z,14.68
2019-03-26T22:15:34.539Z,12.90
2019-03-26T22:18:02.934Z,12.75
2019-03-26T22:20:31.308Z,14.73
2019-03-26T22:22:59.909Z,13.62
2019-03-26T22:25:28.326Z,13.98
2019-03-26T22:27:56.638Z,13.88
2019-03-26T22:30:25.022Z,13.70
2019-03-26T22:32:53.409Z,14.43
2019-03-26T22:35:21.799Z,15.60
2019-03-26T22:37:50.167Z,15.45
2019-03-26T22:40:18.556Z,14.45
2019-03-26T22:42:46.948Z,13.83
2019-03-26T22:45:16.115Z,14.07
2019-03-26T22:47:44.501Z,14.20
2019-03-26T22:50:13.050Z,15.15
2019-03-26T22:52:41.429Z,15.23
2019-03-26T22:55:09.916Z,13.83
2019-03-26T22:57:38.448Z,14.30
2019-03-26T23:00:17.279Z,14.58
2019-03-26T23:02:45.656Z,16.05
2019-03-26T23:05:14.484Z,16.00
2019-03-26T23:07:42.861Z,15.60
2019-03-26T23:10:11.337Z,14.50
2019-03-26T23:12:39.720Z,13.00
2019-03-26T23:15:22.031Z,13.20
2019-03-26T23:17:50.404Z,13.15
2019-03-26T23:20:18.876Z,14.13
2019-03-26T23:22:47.238Z,14.63
2019-03-26T23:25:15.640Z,13.50
2019-03-26T23:27:44.017Z,12.88
2019-03-26T23:30:12.406Z,14.03
2019-03-26T23:32:40.774Z,14.00
2019-03-26T23:35:09.168Z,13.68
2019-03-26T23:37:37.546Z,13.93
2019-03-26T23:40:06.132Z,13.15
2019-03-26T23:42:34.500Z,13.75
2019-03-26T23:45:03.281Z,13.98
2019-03-26T23:47:31.651Z,14.23
2019-03-26T23:50:00.051Z,13.58
2019-03-26T23:52:28.426Z,12.43
2019-03-26T23:54:56.822Z,14.65
2019-03-26T23:57:25.205Z,13.05
2019-03-26T23:59:53.608Z,13.25
